createdAt,value
2017-12-13T00:00:04.162Z,1006.87
2017-12-13T00:01:04.219Z,1006.87
2017-12-13T00:02:04.148Z,1006.86
2017-12-13T00:03:04.149Z,1006.78
2017-12-13T00:04:04.155Z,1006.82
2017-12-13T00:05:04.165Z,1006.79
2017-12-13T00:06:04.166Z,1006.81
2017-12-13T00:07:04.155Z,1006.81
2017-12-13T00:08:04.160Z,1006.74
2017-12-13T00:09:04.170Z,1006.75
2017-12-13T00:10:04.173Z,1006.81
2017-12-13T00:11:04.170Z,1006.78
2017-12-13T00:12:04.172Z,1006.76
2017-12-13T00:13:04.168Z,1006.78
2017-12-13T00:14:04.174Z,1006.74
2017-12-13T00:15:04.189Z,1006.74
2017-12-13T00:16:04.198Z,1006.73
2017-12-13T00:17:04.194Z,1006.69
2017-12-13T00:18:04.175Z,1006.72
2017-12-13T00:19:04.183Z,1006.74
2017-12-13T00:20:04.192Z,1006.71
2017-12-13T00:21:04.184Z,1006.65
2017-12-13T00:22:04.190Z,1006.69
2017-12-13T00:23:04.198Z,1006.68
2017-12-13T00:24:04.203Z,1006.70
2017-12-13T00:25:04.220Z,1006.68
2017-12-13T00:26:04.202Z,1006.60
2017-12-13T00:27:04.299Z,1006.65
2017-12-13T00:28:04.199Z,1006.61
2017-12-13T00:29:04.204Z,1006.63
2017-12-13T00:30:04.303Z,1006.58
2017-12-13T00:31:04.216Z,1006.58
2017-12-13T00:32:04.308Z,1006.57
2017-12-13T00:33:04.222Z,1006.54
2017-12-13T00:34:04.311Z,1006.53
2017-12-13T00:35:04.224Z,1006.57
2017-12-13T00:36:04.341Z,1006.57
2017-12-13T00:37:04.230Z,1006.51
2017-12-13T00:38:04.369Z,1006.50
2017-12-13T00:39:04.236Z,1006.50
2017-12-13T00:40:04.250Z,1006.47
2017-12-13T00:41:04.243Z,1006.50
2017-12-13T00:42:04.259Z,1006.49
2017-12-13T00:43:04.236Z,1006.42
2017-12-13T00:44:04.267Z,1006.48
2017-12-13T00:45:04.247Z,1006.52
2017-12-13T00:46:04.247Z,1006.46
2017-12-13T00:47:04.243Z,1006.49
2017-12-13T00:48:04.316Z,1006.44
2017-12-13T00:49:04.248Z,1006.44
2017-12-13T00:50:04.315Z,1006.41
2017-12-13T00:51:04.263Z,1006.43
2017-12-13T00:52:04.319Z,1006.40
2017-12-13T00:53:04.264Z,1006.42
2017-12-13T00:54:04.349Z,1006.37
2017-12-13T00:55:04.271Z,1006.37
2017-12-13T00:56:04.341Z,1006.41
2017-12-13T00:57:04.294Z,1006.40
2017-12-13T00:58:04.275Z,1006.41
2017-12-13T00:59:04.294Z,1006.33
2017-12-13T01:00:04.282Z,1006.38
2017-12-13T01:01:04.323Z,1006.37
2017-12-13T01:02:04.275Z,1006.26
2017-12-13T01:03:04.325Z,1006.28
2017-12-13T01:04:04.285Z,1006.25
2017-12-13T01:05:05.365Z,1006.26
2017-12-13T01:06:04.286Z,1006.24
2017-12-13T01:07:04.365Z,1006.27
2017-12-13T01:08:04.294Z,1006.23
2017-12-13T01:09:04.377Z,1006.24
2017-12-13T01:10:04.292Z,1006.18
2017-12-13T01:11:04.381Z,1006.16
2017-12-13T01:12:04.303Z,1006.14
2017-12-13T01:13:04.394Z,1006.08
2017-12-13T01:14:04.309Z,1006.08
2017-12-13T01:15:04.408Z,1006.04
2017-12-13T01:16:04.310Z,1006.10
2017-12-13T01:17:04.453Z,1006.10
2017-12-13T01:18:04.349Z,1006.11
2017-12-13T01:19:04.351Z,1006.09
2017-12-13T01:20:04.338Z,1006.16
2017-12-13T01:21:04.393Z,1006.14
2017-12-13T01:22:04.324Z,1006.12
2017-12-13T01:23:04.370Z,1006.11
2017-12-13T01:24:04.326Z,1006.06
2017-12-13T01:25:04.382Z,1006.06
2017-12-13T01:26:04.340Z,1006.01
2017-12-13T01:27:04.396Z,1006.00
2017-12-13T01:28:04.331Z,1006.04
2017-12-13T01:29:04.416Z,1006.05
2017-12-13T01:30:04.341Z,1006.02
2017-12-13T01:31:04.420Z,1006.05
2017-12-13T01:32:04.342Z,1006.03
2017-12-13T01:33:04.439Z,1006.10
2017-12-13T01:34:04.345Z,1006.07
2017-12-13T01:35:04.440Z,1006.03
2017-12-13T01:36:04.354Z,1006.05
2017-12-13T01:37:05.412Z,1006.03
2017-12-13T01:38:04.363Z,1006.04
2017-12-13T01:39:04.472Z,1005.98
2017-12-13T01:40:04.398Z,1006.00
2017-12-13T01:41:04.383Z,1006.00
2017-12-13T01:42:04.370Z,1005.98
2017-12-13T01:43:04.396Z,1006.00
2017-12-13T01:44:04.378Z,1005.98
2017-12-13T01:45:04.441Z,1005.95
2017-12-13T01:46:04.394Z,1005.95
2017-12-13T01:47:04.431Z,1005.96
2017-12-13T01:48:04.422Z,1005.96
2017-12-13T01:49:05.458Z,1006.00
2017-12-13T01:50:04.378Z,1005.96
2017-12-13T01:51:04.452Z,1005.97
2017-12-13T01:52:04.386Z,1005.90
2017-12-13T01:53:04.462Z,1005.96
2017-12-13T01:54:04.391Z,1005.90
2017-12-13T01:55:04.477Z,1005.88
2017-12-13T01:56:04.414Z,1005.86
2017-12-13T01:57:04.482Z,1005.85
2017-12-13T01:58:04.398Z,1005.87
2017-12-13T01:59:04.467Z,1005.88
2017-12-13T02:00:04.399Z,1005.80
2017-12-13T02:01:04.481Z,1005.77
2017-12-13T02:02:04.411Z,1005.78
2017-12-13T02:03:04.486Z,1005.72
2017-12-13T02:04:04.523Z,1005.73
2017-12-13T02:05:04.522Z,1005.71
2017-12-13T02:06:18.969Z,1005.71
2017-12-13T02:07:06.460Z,1005.72
2017-12-13T02:08:04.422Z,1005.65
2017-12-13T02:09:04.528Z,1005.57
2017-12-13T02:10:04.424Z,1005.63
2017-12-13T02:11:04.547Z,1005.65
2017-12-13T02:12:04.428Z,1005.62
2017-12-13T02:13:04.467Z,1005.67
2017-12-13T02:14:04.433Z,1005.64
2017-12-13T02:15:04.468Z,1005.56
2017-12-13T02:16:04.433Z,1005.54
2017-12-13T02:17:04.478Z,1005.48
2017-12-13T02:18:04.442Z,1005.44
2017-12-13T02:19:04.499Z,1005.43
2017-12-13T02:20:04.444Z,1005.41
2017-12-13T02:21:04.503Z,1005.42
2017-12-13T02:22:04.456Z,1005.34
2017-12-13T02:23:04.521Z,1005.36
2017-12-13T02:24:04.474Z,1005.35
2017-12-13T02:25:04.534Z,1005.32
2017-12-13T02:26:04.460Z,1005.36
2017-12-13T02:27:05.567Z,1005.28
2017-12-13T02:28:04.472Z,1005.29
2017-12-13T02:29:04.559Z,1005.39
2017-12-13T02:30:04.490Z,1005.30
2017-12-13T02:31:04.586Z,1005.33
2017-12-13T02:32:04.469Z,1005.31
2017-12-13T02:33:04.497Z,1005.25
2017-12-13T02:34:04.476Z,1005.34
2017-12-13T02:35:04.508Z,1005.29
2017-12-13T02:36:04.499Z,1005.25
2017-12-13T02:37:04.523Z,1005.24
2017-12-13T02:38:04.480Z,1005.28
2017-12-13T02:39:04.524Z,1005.24
2017-12-13T02:40:04.493Z,1005.22
2017-12-13T02:41:04.542Z,1005.23
2017-12-13T02:42:04.496Z,1005.20
2017-12-13T02:43:04.563Z,1005.16
2017-12-13T02:44:04.494Z,1005.16
2017-12-13T02:45:04.620Z,1005.19
2017-12-13T02:46:04.523Z,1005.18
2017-12-13T02:47:04.607Z,1005.11
2017-12-13T02:48:04.562Z,1005.12
2017-12-13T02:49:04.595Z,1005.09
2017-12-13T02:50:04.516Z,1005.09
2017-12-13T02:51:05.429Z,1005.07
2017-12-13T02:52:04.519Z,1005.05
2017-12-13T02:53:04.601Z,1005.05
2017-12-13T02:54:04.532Z,1004.99
2017-12-13T02:55:04.619Z,1005.00
2017-12-13T02:56:04.515Z,1004.95
2017-12-13T02:57:04.631Z,1004.98
2017-12-13T02:58:04.529Z,1004.99
2017-12-13T02:59:04.680Z,1004.99
2017-12-13T03:00:04.530Z,1004.92
2017-12-13T03:01:04.558Z,1004.89
2017-12-13T03:02:04.556Z,1004.87
2017-12-13T03:03:04.575Z,1004.89
2017-12-13T03:04:04.538Z,1004.88
2017-12-13T03:05:04.626Z,1004.87
2017-12-13T03:06:04.543Z,1004.80
2017-12-13T03:07:04.598Z,1004.78
2017-12-13T03:08:04.551Z,1004.77
2017-12-13T03:09:04.612Z,1004.77
2017-12-13T03:10:04.549Z,1004.77
2017-12-13T03:11:04.620Z,1004.73
2017-12-13T03:12:04.579Z,1004.69
2017-12-13T03:13:04.632Z,1004.74
2017-12-13T03:14:04.559Z,1004.68
2017-12-13T03:15:04.642Z,1004.72
2017-12-13T03:16:04.567Z,1004.68
2017-12-13T03:17:04.656Z,1004.72
2017-12-13T03:18:04.563Z,1004.71
2017-12-13T03:19:04.580Z,1004.62
2017-12-13T03:20:04.574Z,1004.58
2017-12-13T03:21:05.616Z,1004.58
2017-12-13T03:22:04.574Z,1004.63
2017-12-13T03:23:04.605Z,1004.58
2017-12-13T03:24:04.580Z,1004.61
2017-12-13T03:25:04.613Z,1004.62
2017-12-13T03:26:04.620Z,1004.62
2017-12-13T03:27:04.630Z,1004.62
2017-12-13T03:28:04.583Z,1004.64
2017-12-13T03:29:04.645Z,1004.68
2017-12-13T03:30:04.597Z,1004.60
2017-12-13T03:31:04.660Z,1004.56
2017-12-13T03:32:04.606Z,1004.59
2017-12-13T03:33:04.674Z,1004.61
2017-12-13T03:34:04.607Z,1004.61
2017-12-13T03:35:04.692Z,1004.55
2017-12-13T03:36:04.616Z,1004.51
2017-12-13T03:37:04.708Z,1004.51
2017-12-13T03:38:04.615Z,1004.45
2017-12-13T03:39:04.709Z,1004.47
2017-12-13T03:40:04.604Z,1004.42
2017-12-13T03:41:05.644Z,1004.39
2017-12-13T03:42:04.638Z,1004.34
2017-12-13T03:43:04.735Z,1004.28
2017-12-13T03:44:04.631Z,1004.34
2017-12-13T03:45:04.640Z,1004.29
2017-12-13T03:46:04.625Z,1004.26
2017-12-13T03:47:04.665Z,1004.27
2017-12-13T03:48:04.644Z,1004.34
2017-12-13T03:49:04.670Z,1004.28
2017-12-13T03:50:04.640Z,1004.22
2017-12-13T03:51:04.690Z,1004.20
2017-12-13T03:52:04.638Z,1004.18
2017-12-13T03:53:04.702Z,1004.18
2017-12-13T03:54:04.665Z,1004.13
2017-12-13T03:55:04.715Z,1004.15
2017-12-13T03:56:04.644Z,1004.14
2017-12-13T03:57:04.764Z,1004.09
2017-12-13T03:58:04.656Z,1004.06
2017-12-13T03:59:04.736Z,1004.07
2017-12-13T04:00:04.668Z,1004.10
2017-12-13T04:01:04.753Z,1004.11
2017-12-13T04:02:04.670Z,1004.06
2017-12-13T04:03:04.773Z,1004.07
2017-12-13T04:04:04.666Z,1004.08
2017-12-13T04:05:04.676Z,1004.11
2017-12-13T04:06:04.676Z,1003.99
2017-12-13T04:07:04.687Z,1004.06
2017-12-13T04:08:04.723Z,1004.05
2017-12-13T04:09:04.693Z,1004.05
2017-12-13T04:10:04.671Z,1004.06
2017-12-13T04:11:04.721Z,1004.02
2017-12-13T04:12:04.682Z,1004.05
2017-12-13T04:13:04.743Z,1004.05
2017-12-13T04:14:04.677Z,1004.06
2017-12-13T04:15:04.740Z,1003.95
2017-12-13T04:16:04.687Z,1003.95
2017-12-13T04:17:04.763Z,1003.99
2017-12-13T04:18:04.684Z,1003.89
2017-12-13T04:19:04.735Z,1003.88
2017-12-13T04:20:04.701Z,1003.83
2017-12-13T04:21:04.794Z,1003.84
2017-12-13T04:22:04.698Z,1003.81
2017-12-13T04:23:04.800Z,1003.78
2017-12-13T04:24:04.717Z,1003.74
2017-12-13T04:25:04.830Z,1003.72
2017-12-13T04:26:04.708Z,1003.67
2017-12-13T04:27:05.756Z,1003.67
2017-12-13T04:28:04.717Z,1003.66
2017-12-13T04:29:04.715Z,1003.59
2017-12-13T04:30:04.725Z,1003.60
2017-12-13T04:31:04.759Z,1003.59
2017-12-13T04:32:04.712Z,1003.49
2017-12-13T04:33:04.769Z,1003.52
2017-12-13T04:34:04.720Z,1003.51
2017-12-13T04:35:05.810Z,1003.48
2017-12-13T04:36:04.734Z,1003.49
2017-12-13T04:37:04.808Z,1003.42
2017-12-13T04:38:04.721Z,1003.43
2017-12-13T04:39:04.739Z,1003.41
2017-12-13T04:40:04.729Z,1003.39
2017-12-13T04:41:04.825Z,1003.41
2017-12-13T04:42:04.735Z,1003.37
2017-12-13T04:43:04.840Z,1003.36
2017-12-13T04:44:04.743Z,1003.37
2017-12-13T04:45:04.855Z,1003.36
2017-12-13T04:46:04.788Z,1003.37
2017-12-13T04:47:04.765Z,1003.28
2017-12-13T04:48:04.772Z,1003.27
2017-12-13T04:49:05.799Z,1003.27
2017-12-13T04:50:04.782Z,1003.28
2017-12-13T04:51:04.788Z,1003.18
2017-12-13T04:52:04.764Z,1003.17
2017-12-13T04:53:04.806Z,1003.13
2017-12-13T04:54:04.773Z,1003.10
2017-12-13T04:55:04.817Z,1003.11
2017-12-13T04:56:04.768Z,1003.12
2017-12-13T04:57:04.848Z,1003.11
2017-12-13T04:58:04.764Z,1003.09
2017-12-13T04:59:04.839Z,1003.11
2017-12-13T05:00:04.774Z,1003.11
2017-12-13T05:01:04.856Z,1003.10
2017-12-13T05:02:04.775Z,1003.08
2017-12-13T05:03:04.887Z,1003.05
2017-12-13T05:04:04.791Z,1003.00
2017-12-13T05:05:04.883Z,1002.99
2017-12-13T05:06:04.788Z,1002.91
2017-12-13T05:07:04.892Z,1002.92
2017-12-13T05:08:04.800Z,1002.95
2017-12-13T05:09:04.804Z,1002.90
2017-12-13T05:10:04.800Z,1002.95
2017-12-13T05:11:04.826Z,1002.94
2017-12-13T05:12:04.789Z,1002.95
2017-12-13T05:13:04.831Z,1002.91
2017-12-13T05:14:04.802Z,1002.88
2017-12-13T05:15:04.848Z,1002.81
2017-12-13T05:16:04.798Z,1002.82
2017-12-13T05:17:04.872Z,1002.84
2017-12-13T05:18:04.843Z,1002.81
2017-12-13T05:19:04.879Z,1002.79
2017-12-13T05:20:04.820Z,1002.77
2017-12-13T05:21:04.920Z,1002.72
2017-12-13T05:22:04.816Z,1002.71
2017-12-13T05:23:04.901Z,1002.74
2017-12-13T05:24:04.836Z,1002.70
2017-12-13T05:25:04.911Z,1002.69
2017-12-13T05:26:04.820Z,1002.63
2017-12-13T05:27:04.928Z,1002.59
2017-12-13T05:28:04.823Z,1002.60
2017-12-13T05:29:04.940Z,1002.54
2017-12-13T05:30:04.837Z,1002.55
2017-12-13T05:31:04.852Z,1002.49
2017-12-13T05:32:04.841Z,1002.50
2017-12-13T05:33:04.866Z,1002.51
2017-12-13T05:34:04.872Z,1002.48
2017-12-13T05:35:04.908Z,1002.46
2017-12-13T05:36:04.833Z,1002.45
2017-12-13T05:37:04.904Z,1002.45
2017-12-13T05:38:04.840Z,1002.40
2017-12-13T05:39:04.851Z,1002.41
2017-12-13T05:40:04.863Z,1002.42
2017-12-13T05:41:04.918Z,1002.39
2017-12-13T05:42:04.860Z,1002.45
2017-12-13T05:43:04.936Z,1002.39
2017-12-13T05:44:04.881Z,1002.34
2017-12-13T05:45:04.963Z,1002.31
2017-12-13T05:46:04.856Z,1002.27
2017-12-13T05:47:04.962Z,1002.30
2017-12-13T05:48:04.859Z,1002.24
2017-12-13T05:49:04.980Z,1002.27
2017-12-13T05:50:04.888Z,1002.27
2017-12-13T05:51:04.885Z,1002.28
2017-12-13T05:52:04.869Z,1002.19
2017-12-13T05:53:04.901Z,1002.21
2017-12-13T05:54:04.873Z,1002.17
2017-12-13T05:55:04.913Z,1002.21
2017-12-13T05:56:04.876Z,1002.10
2017-12-13T05:57:04.940Z,1002.09
2017-12-13T05:58:04.886Z,1002.07
2017-12-13T05:59:04.948Z,1002.05
2017-12-13T06:00:04.884Z,1001.97
2017-12-13T06:01:04.962Z,1001.99
2017-12-13T06:02:04.894Z,1002.07
2017-12-13T06:03:04.897Z,1001.99
2017-12-13T06:04:04.893Z,1001.98
2017-12-13T06:05:04.929Z,1001.91
2017-12-13T06:06:04.900Z,1001.89
2017-12-13T06:07:04.900Z,1001.85
2017-12-13T06:08:04.905Z,1001.81
2017-12-13T06:09:04.911Z,1001.79
2017-12-13T06:10:05.035Z,1001.85
2017-12-13T06:11:04.904Z,1001.80
2017-12-13T06:12:04.911Z,1001.86
2017-12-13T06:13:04.909Z,1001.82
2017-12-13T06:14:04.914Z,1001.77
2017-12-13T06:15:04.921Z,1001.82
2017-12-13T06:16:04.955Z,1001.77
2017-12-13T06:17:04.917Z,1001.68
2017-12-13T06:18:04.995Z,1001.59
2017-12-13T06:19:04.931Z,1001.60
2017-12-13T06:20:04.980Z,1001.61
2017-12-13T06:21:04.918Z,1001.55
2017-12-13T06:22:04.998Z,1001.54
2017-12-13T06:23:04.931Z,1001.56
2017-12-13T06:24:05.009Z,1001.53
2017-12-13T06:25:04.943Z,1001.50
2017-12-13T06:26:05.023Z,1001.52
2017-12-13T06:27:04.941Z,1001.45
2017-12-13T06:28:05.043Z,1001.48
2017-12-13T06:29:04.944Z,1001.41
2017-12-13T06:30:05.080Z,1001.47
2017-12-13T06:31:04.954Z,1001.45
2017-12-13T06:32:04.970Z,1001.37
2017-12-13T06:33:04.994Z,1001.38
2017-12-13T06:34:06.009Z,1001.41
2017-12-13T06:35:04.958Z,1001.36
2017-12-13T06:36:06.087Z,1001.35
2017-12-13T06:37:04.957Z,1001.27
2017-12-13T06:38:06.052Z,1001.27
2017-12-13T06:39:04.957Z,1001.26
2017-12-13T06:40:05.039Z,1001.29
2017-12-13T06:41:04.953Z,1001.21
2017-12-13T06:42:05.059Z,1001.26
2017-12-13T06:43:04.992Z,1001.17
2017-12-13T06:44:05.066Z,1001.26
2017-12-13T06:45:04.960Z,1001.25
2017-12-13T06:46:05.082Z,1001.26
2017-12-13T06:47:04.974Z,1001.25
2017-12-13T06:48:04.989Z,1001.23
2017-12-13T06:49:04.981Z,1001.16
2017-12-13T06:50:04.982Z,1001.12
2017-12-13T06:51:04.985Z,1001.04
2017-12-13T06:52:06.106Z,1000.98
2017-12-13T06:53:04.982Z,1001.04
2017-12-13T06:54:05.099Z,1000.98
2017-12-13T06:55:04.986Z,1000.96
2017-12-13T06:56:05.114Z,1000.91
2017-12-13T06:57:04.998Z,1000.86
2017-12-13T06:58:05.019Z,1000.82
2017-12-13T06:59:05.002Z,1000.83
2017-12-13T07:00:04.991Z,1000.74
2017-12-13T07:01:04.996Z,1000.74
2017-12-13T07:02:05.004Z,1000.80
2017-12-13T07:03:05.001Z,1000.72
2017-12-13T07:04:05.027Z,1000.71
2017-12-13T07:05:05.024Z,1000.65
2017-12-13T07:06:05.020Z,1000.73
2017-12-13T07:07:05.013Z,1000.70
2017-12-13T07:08:05.019Z,1000.69
2017-12-13T07:09:05.014Z,1000.69
2017-12-13T07:10:05.010Z,1000.71
2017-12-13T07:11:05.110Z,1000.68
2017-12-13T07:12:05.018Z,1000.58
2017-12-13T07:13:05.020Z,1000.65
2017-12-13T07:14:05.128Z,1000.57
2017-12-13T07:15:05.027Z,1000.60
2017-12-13T07:16:05.045Z,1000.63
2017-12-13T07:17:05.029Z,1000.53
2017-12-13T07:18:05.052Z,1000.47
2017-12-13T07:19:05.031Z,1000.52
2017-12-13T07:20:05.064Z,1000.48
2017-12-13T07:21:05.038Z,1000.44
2017-12-13T07:22:06.099Z,1000.49
2017-12-13T07:23:05.036Z,1000.37
2017-12-13T07:24:05.035Z,1000.36
2017-12-13T07:25:05.100Z,1000.41
2017-12-13T07:26:05.039Z,1000.36
2017-12-13T07:27:05.117Z,1000.37
2017-12-13T07:28:05.051Z,1000.34
2017-12-13T07:29:05.125Z,1000.30
2017-12-13T07:30:05.050Z,1000.28
2017-12-13T07:31:05.067Z,1000.22
2017-12-13T07:32:05.143Z,1000.30
2017-12-13T07:33:05.063Z,1000.20
2017-12-13T07:34:05.154Z,1000.19
2017-12-13T07:35:05.063Z,1000.17
2017-12-13T07:36:05.229Z,1000.21
2017-12-13T07:37:05.071Z,1000.05
2017-12-13T07:38:05.078Z,1000.14
2017-12-13T07:39:05.081Z,1000.12
2017-12-13T07:40:05.100Z,1000.11
2017-12-13T07:41:05.068Z,1000.12
2017-12-13T07:42:05.109Z,1000.03
2017-12-13T07:43:05.080Z,1000.01
2017-12-13T07:44:05.072Z,1000.05
2017-12-13T07:45:05.143Z,1000.04
2017-12-13T07:46:05.075Z,1000.00
2017-12-13T07:47:05.932Z,999.99
2017-12-13T07:48:05.087Z,999.88
2017-12-13T07:49:05.168Z,999.93
2017-12-13T07:50:05.095Z,999.96
2017-12-13T07:51:05.102Z,999.95
2017-12-13T07:52:05.091Z,999.87
2017-12-13T07:53:05.186Z,999.83
2017-12-13T07:54:05.096Z,999.85
2017-12-13T07:55:05.203Z,999.79
2017-12-13T07:56:05.098Z,999.79
2017-12-13T07:57:05.223Z,999.81
2017-12-13T07:58:05.100Z,999.72
2017-12-13T07:59:05.123Z,999.69
2017-12-13T08:00:05.114Z,999.66
2017-12-13T08:01:05.147Z,999.69
2017-12-13T08:02:05.121Z,999.72
2017-12-13T08:03:05.161Z,999.69
2017-12-13T08:04:05.110Z,999.70
2017-12-13T08:05:05.196Z,999.65
2017-12-13T08:06:05.124Z,999.66
2017-12-13T08:07:05.175Z,999.62
2017-12-13T08:08:05.194Z,999.63
2017-12-13T08:09:05.137Z,999.60
2017-12-13T08:10:05.202Z,999.64
2017-12-13T08:11:05.124Z,999.53
2017-12-13T08:12:05.118Z,999.53
2017-12-13T08:13:05.130Z,999.55
2017-12-13T08:14:05.226Z,999.55
2017-12-13T08:15:05.137Z,999.54
2017-12-13T08:16:05.243Z,999.56
2017-12-13T08:17:05.138Z,999.52
2017-12-13T08:18:06.173Z,999.50
2017-12-13T08:19:05.143Z,999.49
2017-12-13T08:20:05.167Z,999.52
2017-12-13T08:21:05.149Z,999.48
2017-12-13T08:22:05.188Z,999.50
2017-12-13T08:23:05.162Z,999.42
2017-12-13T08:24:05.195Z,999.46
2017-12-13T08:25:05.158Z,999.40
2017-12-13T08:26:05.215Z,999.41
2017-12-13T08:27:05.159Z,999.35
2017-12-13T08:28:05.225Z,999.30
2017-12-13T08:29:05.157Z,999.28
2017-12-13T08:30:05.239Z,999.26
2017-12-13T08:31:05.243Z,999.17
2017-12-13T08:32:05.244Z,999.05
2017-12-13T08:33:05.172Z,999.04
2017-12-13T08:34:05.266Z,998.98
2017-12-13T08:35:05.171Z,998.97
2017-12-13T08:36:05.279Z,999.03
2017-12-13T08:37:05.187Z,998.94
2017-12-13T08:38:05.171Z,998.91
2017-12-13T08:39:07.244Z,998.83
2017-12-13T08:40:05.186Z,998.78
2017-12-13T08:41:05.220Z,998.71
2017-12-13T08:42:05.176Z,998.76
2017-12-13T08:43:05.232Z,998.72
2017-12-13T08:44:05.189Z,998.69
2017-12-13T08:45:05.234Z,998.68
2017-12-13T08:46:05.185Z,998.71
2017-12-13T08:47:05.249Z,998.65
2017-12-13T08:48:05.192Z,998.59
2017-12-13T08:49:05.200Z,998.69
2017-12-13T08:50:06.292Z,998.64
2017-12-13T08:51:05.197Z,998.63
2017-12-13T08:52:05.281Z,998.59
2017-12-13T08:53:05.198Z,998.57
2017-12-13T08:54:05.292Z,998.57
2017-12-13T08:55:05.196Z,998.59
2017-12-13T08:56:05.311Z,998.55
2017-12-13T08:57:05.211Z,998.52
2017-12-13T08:58:05.318Z,998.59
2017-12-13T08:59:05.210Z,998.54
2017-12-13T09:00:05.233Z,998.53
2017-12-13T09:01:05.215Z,998.47
2017-12-13T09:02:05.240Z,998.44
2017-12-13T09:03:05.212Z,998.48
2017-12-13T09:04:05.263Z,998.45
2017-12-13T09:05:05.232Z,998.36
2017-12-13T09:06:05.275Z,998.41
2017-12-13T09:07:05.278Z,998.41
2017-12-13T09:08:05.231Z,998.39
2017-12-13T09:09:05.290Z,998.45
2017-12-13T09:10:05.232Z,998.27
2017-12-13T09:11:05.320Z,998.27
2017-12-13T09:12:05.234Z,998.24
2017-12-13T09:13:05.327Z,998.23
2017-12-13T09:14:05.261Z,998.14
2017-12-13T09:15:06.357Z,998.14
2017-12-13T09:16:05.245Z,998.06
2017-12-13T09:17:05.357Z,998.00
2017-12-13T09:18:05.257Z,998.01
2017-12-13T09:19:05.252Z,998.10
2017-12-13T09:20:05.348Z,998.09
2017-12-13T09:21:05.301Z,998.01
2017-12-13T09:22:05.388Z,997.97
2017-12-13T09:23:05.258Z,997.98
2017-12-13T09:24:05.271Z,997.87
2017-12-13T09:25:05.255Z,997.88
2017-12-13T09:26:05.296Z,997.81
2017-12-13T09:27:05.263Z,997.87
2017-12-13T09:28:05.309Z,997.74
2017-12-13T09:29:05.261Z,997.78
2017-12-13T09:30:05.320Z,997.75
2017-12-13T09:31:05.318Z,997.82
2017-12-13T09:32:05.339Z,997.74
2017-12-13T09:33:05.306Z,997.66
2017-12-13T09:34:05.350Z,997.64
2017-12-13T09:35:05.280Z,997.64
2017-12-13T09:36:05.383Z,997.61
2017-12-13T09:37:05.294Z,997.46
2017-12-13T09:38:05.372Z,997.52
2017-12-13T09:39:05.277Z,997.53
2017-12-13T09:40:05.388Z,997.49
2017-12-13T09:41:05.296Z,997.45
2017-12-13T09:42:05.415Z,997.39
2017-12-13T09:43:05.294Z,997.40
2017-12-13T09:44:05.332Z,997.43
2017-12-13T09:45:05.305Z,997.31
2017-12-13T09:46:05.324Z,997.31
2017-12-13T09:47:05.313Z,997.26
2017-12-13T09:48:05.339Z,997.30
2017-12-13T09:49:05.302Z,997.18
2017-12-13T09:50:05.303Z,997.16
2017-12-13T09:51:05.366Z,997.16
2017-12-13T09:52:05.307Z,997.16
2017-12-13T09:53:05.373Z,997.12
2017-12-13T09:54:05.304Z,997.09
2017-12-13T09:55:05.311Z,997.08
2017-12-13T09:56:05.334Z,997.05
2017-12-13T09:57:05.399Z,997.07
2017-12-13T09:58:05.319Z,997.08
2017-12-13T09:59:05.411Z,997.02
2017-12-13T10:00:05.319Z,997.03
2017-12-13T10:01:05.424Z,997.02
2017-12-13T10:02:05.346Z,997.02
2017-12-13T10:03:05.439Z,996.91
2017-12-13T10:04:05.333Z,996.95
2017-12-13T10:05:05.352Z,996.92
2017-12-13T10:06:05.344Z,996.92
2017-12-13T10:07:05.333Z,996.72
2017-12-13T10:08:05.368Z,996.76
2017-12-13T10:09:05.346Z,996.77
2017-12-13T10:10:05.403Z,996.73
2017-12-13T10:11:05.350Z,996.71
2017-12-13T10:12:05.394Z,996.72
2017-12-13T10:13:05.339Z,996.70
2017-12-13T10:14:05.422Z,996.71
2017-12-13T10:15:05.353Z,996.73
2017-12-13T10:16:06.479Z,996.65
2017-12-13T10:17:05.352Z,996.65
2017-12-13T10:18:05.435Z,996.64
2017-12-13T10:19:05.370Z,996.60
2017-12-13T10:20:06.410Z,996.45
2017-12-13T10:21:05.357Z,996.57
2017-12-13T10:22:05.374Z,996.52
2017-12-13T10:23:05.369Z,996.47
2017-12-13T10:24:05.372Z,996.45
2017-12-13T10:25:05.370Z,996.42
2017-12-13T10:26:05.459Z,996.46
2017-12-13T10:27:05.420Z,996.36
2017-12-13T10:28:06.436Z,996.35
2017-12-13T10:29:05.411Z,996.36
2017-12-13T10:30:05.386Z,996.30
2017-12-13T10:31:05.433Z,996.26
2017-12-13T10:32:05.382Z,996.24
2017-12-13T10:33:05.436Z,996.30
2017-12-13T10:34:05.390Z,996.24
2017-12-13T10:35:05.475Z,996.13
2017-12-13T10:36:05.397Z,996.29
2017-12-13T10:37:06.497Z,996.10
2017-12-13T10:38:05.404Z,996.08
2017-12-13T10:39:05.403Z,995.96
2017-12-13T10:40:05.488Z,995.94
2017-12-13T10:41:05.399Z,995.96
2017-12-13T10:42:05.496Z,995.92
2017-12-13T10:43:05.410Z,995.90
2017-12-13T10:44:05.530Z,995.90
2017-12-13T10:45:05.426Z,995.79
2017-12-13T10:46:05.430Z,995.77
2017-12-13T10:47:05.408Z,995.79
2017-12-13T10:48:05.430Z,995.76
2017-12-13T10:49:05.424Z,995.67
2017-12-13T10:50:05.455Z,995.67
2017-12-13T10:51:05.474Z,995.74
2017-12-13T10:52:05.425Z,995.63
2017-12-13T10:53:05.422Z,995.61
2017-12-13T10:54:05.482Z,995.68
2017-12-13T10:55:05.418Z,995.58
2017-12-13T10:56:05.523Z,995.46
2017-12-13T10:57:06.618Z,995.47
2017-12-13T10:58:05.441Z,995.37
2017-12-13T10:59:05.432Z,995.36
2017-12-13T11:00:05.496Z,995.29
2017-12-13T11:01:05.486Z,995.15
2017-12-13T11:02:05.481Z,995.29
2017-12-13T11:03:05.446Z,995.32
2017-12-13T11:04:05.447Z,995.21
2017-12-13T11:05:05.441Z,995.27
2017-12-13T11:06:05.457Z,995.15
2017-12-13T11:07:05.441Z,995.16
2017-12-13T11:08:05.445Z,995.11
2017-12-13T11:09:05.496Z,995.14
2017-12-13T11:10:05.470Z,995.10
2017-12-13T11:11:05.460Z,994.92
2017-12-13T11:12:05.498Z,995.00
2017-12-13T11:13:05.480Z,995.11
2017-12-13T11:14:05.512Z,994.93
2017-12-13T11:15:05.468Z,994.95
2017-12-13T11:16:05.535Z,994.89
2017-12-13T11:17:05.465Z,994.96
2017-12-13T11:18:05.542Z,994.88
2017-12-13T11:19:05.475Z,994.89
2017-12-13T11:20:05.473Z,994.84
2017-12-13T11:21:05.630Z,994.73
2017-12-13T11:22:05.551Z,994.70
2017-12-13T11:23:05.475Z,994.63
2017-12-13T11:24:05.477Z,994.74
2017-12-13T11:25:05.508Z,994.45
2017-12-13T11:26:05.487Z,994.49
2017-12-13T11:27:05.513Z,994.42
2017-12-13T11:28:07.457Z,994.36
2017-12-13T11:29:05.505Z,994.46
2017-12-13T11:30:05.486Z,994.35
2017-12-13T11:31:05.492Z,994.38
2017-12-13T11:32:05.510Z,994.31
2017-12-13T11:33:05.501Z,994.20
2017-12-13T11:34:05.500Z,994.24
2017-12-13T11:35:05.524Z,994.28
2017-12-13T11:36:05.505Z,994.12
2017-12-13T11:37:05.559Z,994.10
2017-12-13T11:38:05.504Z,994.13
2017-12-13T11:39:05.514Z,994.09
2017-12-13T11:40:05.514Z,994.10
2017-12-13T11:41:05.568Z,994.04
2017-12-13T11:42:05.537Z,994.19
2017-12-13T11:43:06.632Z,994.01
2017-12-13T11:44:05.523Z,994.00
2017-12-13T11:45:05.589Z,993.89
2017-12-13T11:46:05.828Z,993.91
2017-12-13T11:47:05.609Z,993.89
2017-12-13T11:48:05.606Z,993.87
2017-12-13T11:49:05.523Z,993.84
2017-12-13T11:50:05.632Z,993.84
2017-12-13T11:51:05.537Z,993.77
2017-12-13T11:52:05.680Z,993.79
2017-12-13T11:53:05.541Z,993.74
2017-12-13T11:54:05.551Z,993.82
2017-12-13T11:55:05.539Z,993.69
2017-12-13T11:56:05.662Z,993.66
2017-12-13T11:57:05.556Z,993.58
2017-12-13T11:58:05.594Z,993.85
2017-12-13T11:59:05.544Z,993.61
2017-12-13T12:00:05.586Z,993.58
2017-12-13T12:01:05.551Z,993.54
2017-12-13T12:02:05.554Z,993.57
2017-12-13T12:03:05.595Z,993.45
2017-12-13T12:04:05.636Z,993.38
2017-12-13T12:05:05.569Z,993.45
2017-12-13T12:06:05.658Z,993.57
2017-12-13T12:07:05.567Z,993.34
2017-12-13T12:08:05.641Z,993.32
2017-12-13T12:09:05.565Z,993.29
2017-12-13T12:10:05.658Z,993.26
2017-12-13T12:11:05.582Z,993.23
2017-12-13T12:12:05.585Z,993.17
2017-12-13T12:13:05.686Z,993.14